TimePDT,TemperatureF,Dew PointF,Humidity,Sea Level PressureIn,VisibilityMPH,Wind Direction,Wind SpeedMPH,Gust SpeedMPH,PrecipitationIn,Events,Conditions,WindDirDegrees,DateUTC
12:56 AM,77.0,28.9,17,29.84,10.0,SSW,11.5,-,N/A,,Clear,200,2012-10-02 07:56:00
1:56 AM,75.9,28.9,18,29.84,10.0,SSW,10.4,-,N/A,,Clear,200,2012-10-02 08:56:00
2:56 AM,75.0,28.9,18,29.83,10.0,SSW,8.1,-,N/A,,Clear,200,2012-10-02 09:56:00
3:56 AM,73.0,30.0,20,29.84,10.0,SSW,6.9,-,N/A,,Clear,200,2012-10-02 10:56:00
4:56 AM,73.0,30.0,20,29.84,10.0,SSW,10.4,-,N/A,,Clear,210,2012-10-02 11:56:00
5:56 AM,72.0,30.0,21,29.85,10.0,SSW,5.8,-,N/A,,Clear,210,2012-10-02 12:56:00
6:56 AM,71.1,32.0,24,29.86,10.0,SSW,8.1,-,N/A,,Clear,210,2012-10-02 13:56:00
7:56 AM,75.0,30.9,20,29.87,10.0,South,8.1,-,N/A,,Clear,190,2012-10-02 14:56:00
8:56 AM,79.0,33.1,19,29.88,10.0,South,8.1,-,N/A,,Clear,190,2012-10-02 15:56:00
9:56 AM,82.9,35.1,18,29.88,10.0,SSE,6.9,-,N/A,,Clear,160,2012-10-02 16:56:00
10:56 AM,88.0,30.0,12,29.87,10.0,South,6.9,-,N/A,,Clear,170,2012-10-02 17:56:00
11:56 AM,90.0,30.0,12,29.85,10.0,SSE,6.9,-,N/A,,Clear,150,2012-10-02 18:56:00
12:56 PM,93.2,26.6,9,29.89,10.0,Calm,Calm,-,N/A,,Clear,0,2012-10-02 19:56:00
1:56 PM,95.0,27.0,9,29.77,10.0,SE,6.9,-,N/A,,Clear,140,2012-10-02 20:56:00
2:56 PM,97.0,28.0,9,29.75,10.0,Variable,3.5,-,N/A,,Clear,0,2012-10-02 21:56:00
3:56 PM,98.1,28.0,8,29.73,10.0,SE,3.5,-,N/A,,Clear,130,2012-10-02 22:56:00
4:56 PM,99.0,27.0,8,29.72,10.0,SSE,5.8,-,N/A,,Partly Cloudy,150,2012-10-02 23:56:00
5:56 PM,96.8,28.4,9,29.79,10.0,South,6.9,-,N/A,,Scattered Clouds,190,2012-10-03 00:56:00
6:56 PM,93.2,24.8,9,29.79,10.0,SSW,10.4,-,N/A,,Scattered Clouds,210,2012-10-03 01:56:00
7:56 PM,91.0,24.1,9,29.73,10.0,SSW,10.4,-,N/A,,Scattered Clouds,210,2012-10-03 02:56:00
8:56 PM,89.1,24.1,9,29.73,10.0,SSW,11.5,-,N/A,,Scattered Clouds,210,2012-10-03 03:56:00
9:56 PM,86.0,24.1,10,29.74,10.0,South,11.5,-,N/A,,Scattered Clouds,190,2012-10-03 04:56:00
10:56 PM,82.9,25.0,12,29.74,10.0,SSW,9.2,-,N/A,,Scattered Clouds,200,2012-10-03 05:56:00
11:56 PM,82.0,25.0,12,29.73,10.0,SSW,10.4,-,N/A,,Scattered Clouds,200,2012-10-03 06:56:00